Relevés horaires St-Hubert (Belgique)


Relevés horaires à St-Hubert - Vendredi 26 Août 2022
Heure UTC1 Température [°C] Vent [km/h] Hum. [%] Pres.4 [hPa] Visi. [Km] Nébu. [octa] Préc.5 [mm] Cond.
2m. Res. Ros. Dir.2 Vit. Moy. Raf.3
23:00 14.3 14.3 13.0 N 3.7 7.4 11.1 92 1017.3(0.1/3h) 12 8/8 -- --
22:00 14.6 14.6 13.1 NNE 5.6 9.3 11.1 91 1017.3(0.3/3h) 18 8/8 -- --
21:00 14.8 14.7 13.2 NE 7.4 9.3 14.8 90 1017.2(0.2/3h) 18 6/8 -- --
20:00 15.6 15.6 13.2 N 7.4 9.3 14.8 86 1016.9(0.2/3h) 40 8/8 -- --
19:00 15.8 15.8 13.2 N 5.6 7.4 11.1 85 1016.7(0.0/3h) 30 8/8 -- --
18:00 15.9 15.9 13.8 N 5.6 11.1 16.7 87 1016.6(-0.2/3h) 35 8/8 0/12h
--
17:00 15.8 15.8 14.1 N 5.6 11.1 14.8 90 1016.5(-0.3/3h) 21 8/8 -- --
16:00 15.5 15.1 14.5 NNO 11.1 11.1 14.8 94 1016.7(-0.3/3h) -- 8/8 -- --
15:00 16.0 15.9 14.5 NNO 9.3 11.1 16.7 91 1016.8(-0.4/3h) -- 8/8 -- --
14:00 17.5 17.5 13.8 NO 9.3 11.1 16.7 79 1016.5(-0.2/3h) 30 8/8 -- --
13:00 17.9 17.9 13.4 N 7.4 11.1 14.8 75 1016.6(-0.3/3h) 35 8/8 -- --
12:00 16.9 16.9 13.4 N 7.4 11.1 16.7 80 1017(0.1/3h) 35 8/8 0/6h
--
11:00 16.1 16 13.7 NNO 9.3 11.1 16.7 86 1017.1(0.3/3h) 24 8/8 -- --
10:00 15.5 15.5 14.0 NNO 7.4 11.1 14.8 91 1017.4(0.9/3h) 12 8/8 -- --
09:00 15.5 15.3 14.2 N 9.3 9.3 14.8 92 1017.2(0.9/3h) -- 8/8 -- --
08:00 15.4 15.4 14.3 N 7.4 9.3 14.8 93 1016.9(0.8/3h) -- 8/8 -- --
07:00 15.5 15.5 14.2 N 7.4 9.3 14.8 92 1016.5(0.6/3h) -- 8/8 -- --
06:00 15.4 15.2 14.3 N 9.3 9.3 16.7 93 1016.2(-0.1/3h) -- 8/8 0/12h
--
05:00 15.6 15.6 14.3 N 7.4 9.3 16.7 92 1016(0.2/3h) -- 8/8 -- --
04:00 15.9 15.9 14.5 N 7.4 9.3 16.7 91 1015.8(-0.2/3h) -- 8/8 -- --
03:00 16.2 16.2 14.8 N 7.4 9.3 16.7 91 1015.9(0.1/3h) -- 8/8 -- --
02:00 16.6 16.6 15.0 N 7.4 7.4 14.8 90 1015.9(0.1/3h) -- 8/8 -- --
01:00 16.9 16.9 15.0 N 7.4 9.3 16.7 89 1015.8(0.2/3h) -- 8/8 -- --
00:00 17.0 17.0 15.2 N 9.3 13.0 18.5 89 1015.7(0.5/3h) -- 8/8 0/6h
0/24h
--

1 Coordinated Universal Time. Actuellement il est 13:00 locale et 12:00 UTC.

2 Le vent souffle depuis la direction indiquée vers la direction oposée.

3 Les rafales max. sont disponible 40 min après l'heure du relevé.

4 Pour les stations d'altitude (plus de 600m) le géopotentiel du niveau le plus proche de la pression obligatoire est indiqué.

5 Les stations disposant d'un diffuseur peuvent indiquer "trace". Cela signifie que des précipitations ont touchés le sol mais que la quantité est inférieure à 0.1 mm.

Récapitulatif de la journée
Température [°C] Vent [km/h] Ensoleillement4 [h] Precipitations totale5 [mm] Pression [Hpa]
Min1 Max.2 Moy.3 Max. Min Max.
15.4 18.0 9.9 18.5 0 h 0 min 0 1015.7 1017.4

1 Température minimale relevée entre 18:00 UTC la veille et 18:00 UTC le jour donné.

2 Température maximale relevée entre 06:00 UTC le jour donné et 06:00 UTC le lendemain.

3 Vent moyen de la journée basé sur les relevés horaires.

4 Ensoleillement en heures relevé entre 06:00 UTC la veille et 06:00 UTC le jour donné.

5 Précipitations totales tombées entre 06:00 UTC la jour donné et 06:00 UTC le lendemain.

Graphiques horaires